createdAt,value
2023-02-15T00:01:44.462Z,66.75
2023-02-15T00:04:13.941Z,66.17
2023-02-15T00:06:40.545Z,66.27
2023-02-15T00:09:06.970Z,66.79
2023-02-15T00:11:52.000Z,66.36
2023-02-15T00:14:21.537Z,66.88
2023-02-15T00:16:49.670Z,66.58
2023-02-15T00:19:20.797Z,67.49
2023-02-15T00:21:48.598Z,66.84
2023-02-15T00:24:17.249Z,66.73
2023-02-15T00:26:44.389Z,66.08
2023-02-15T00:29:12.109Z,66.55
2023-02-15T00:31:39.120Z,66.51
2023-02-15T00:34:13.433Z,66.55
2023-02-15T00:36:40.066Z,66.65
2023-02-15T00:39:06.626Z,67.14
2023-02-15T00:41:33.669Z,67.10
2023-02-15T00:44:00.798Z,66.82
2023-02-15T00:46:27.501Z,66.05
2023-02-15T00:48:53.881Z,66.63
2023-02-15T00:51:21.302Z,66.59
2023-02-15T00:53:48.024Z,66.37
2023-02-15T00:56:14.401Z,66.98
2023-02-15T00:58:40.776Z,66.84
2023-02-15T01:01:11.182Z,66.92
2023-02-15T01:03:38.082Z,66.80
2023-02-15T01:06:05.612Z,67.26
2023-02-15T01:08:32.337Z,66.74
2023-02-15T01:11:04.331Z,67.61
2023-02-15T01:13:30.645Z,67.25
2023-02-15T01:15:57.027Z,67.31
2023-02-15T01:18:23.451Z,67.43
2023-02-15T01:20:50.423Z,67.66
2023-02-15T01:23:16.838Z,67.59
2023-02-15T01:25:43.303Z,67.70
2023-02-15T01:28:09.811Z,67.79
2023-02-15T01:30:36.528Z,67.07
2023-02-15T01:33:03.097Z,67.25
2023-02-15T01:35:29.844Z,67.45
2023-02-15T01:37:57.215Z,67.01
2023-02-15T01:40:24.713Z,67.32
2023-02-15T01:42:53.238Z,67.72
2023-02-15T01:45:26.185Z,66.96
2023-02-15T01:47:59.353Z,67.42
2023-02-15T01:50:33.113Z,67.09
2023-02-15T01:53:10.063Z,67.52
2023-02-15T01:55:47.793Z,67.06
2023-02-15T01:58:15.091Z,67.25
2023-02-15T02:00:41.587Z,67.34
2023-02-15T02:03:08.142Z,67.51
2023-02-15T02:05:34.732Z,67.10
2023-02-15T02:08:02.416Z,66.87
2023-02-15T02:10:29.742Z,66.70
2023-02-15T02:13:00.668Z,66.64
2023-02-15T02:15:42.256Z,67.62
2023-02-15T02:18:36.784Z,67.04
2023-02-15T02:21:39.772Z,67.49
2023-02-15T02:24:40.211Z,67.28
2023-02-15T02:27:15.542Z,67.47
2023-02-15T02:30:06.932Z,66.88
2023-02-15T02:32:54.620Z,67.16
2023-02-15T02:35:27.195Z,66.82
2023-02-15T02:38:27.775Z,67.53
2023-02-15T02:41:26.723Z,68.21
2023-02-15T02:44:05.716Z,67.71
2023-02-15T02:46:47.157Z,67.93
2023-02-15T02:49:13.629Z,68.02
2023-02-15T02:51:40.064Z,67.73
2023-02-15T02:54:08.347Z,68.65
2023-02-15T02:56:40.366Z,68.55
2023-02-15T02:59:10.350Z,68.56
2023-02-15T03:01:44.240Z,67.98
2023-02-15T03:04:21.515Z,68.33
2023-02-15T03:06:57.463Z,68.63
2023-02-15T03:09:43.994Z,68.76
2023-02-15T03:12:14.471Z,68.09
2023-02-15T03:14:44.153Z,68.16
2023-02-15T03:17:13.190Z,68.17
2023-02-15T03:19:40.028Z,67.82
2023-02-15T03:22:23.754Z,68.25
2023-02-15T03:24:57.102Z,67.68
2023-02-15T03:27:27.593Z,68.29
2023-02-15T03:29:58.370Z,68.61
2023-02-15T03:32:29.381Z,68.28
2023-02-15T03:34:56.599Z,67.47
2023-02-15T03:37:36.810Z,68.17
2023-02-15T03:40:26.346Z,68.41
2023-02-15T03:43:05.855Z,68.58
2023-02-15T03:45:36.962Z,68.66
2023-02-15T03:48:07.347Z,68.38
2023-02-15T03:50:56.959Z,68.47
2023-02-15T03:53:25.485Z,68.67
2023-02-15T03:55:55.191Z,68.95
2023-02-15T03:58:40.141Z,68.98
2023-02-15T04:01:38.612Z,68.73
2023-02-15T04:04:16.304Z,68.47
2023-02-15T04:06:42.638Z,69.36
2023-02-15T04:09:27.648Z,69.46
2023-02-15T04:11:54.005Z,69.23
2023-02-15T04:14:40.731Z,69.66
2023-02-15T04:17:08.691Z,69.02
2023-02-15T04:19:53.724Z,69.51
2023-02-15T04:22:38.428Z,69.29
2023-02-15T04:25:14.054Z,69.25
2023-02-15T04:27:43.331Z,68.91
2023-02-15T04:30:11.566Z,68.21
2023-02-15T04:32:38.472Z,69.28
2023-02-15T04:35:06.309Z,68.15
2023-02-15T04:37:33.401Z,68.71
2023-02-15T04:39:59.899Z,67.88
2023-02-15T04:42:27.093Z,69.41
2023-02-15T04:44:54.034Z,69.50
2023-02-15T04:47:20.528Z,68.69
2023-02-15T04:49:47.167Z,69.03
2023-02-15T04:52:13.991Z,69.04
2023-02-15T04:54:40.428Z,68.98
2023-02-15T04:57:07.227Z,68.87
2023-02-15T04:59:33.756Z,68.95
2023-02-15T05:02:00.168Z,69.46
2023-02-15T05:07:21.300Z,69.67
2023-02-15T05:09:47.695Z,69.31
2023-02-15T05:12:14.052Z,69.43
2023-02-15T05:14:40.491Z,69.74
2023-02-15T05:17:07.180Z,70.11
2023-02-15T05:19:33.592Z,70.15
2023-02-15T05:22:00.334Z,69.95
2023-02-15T05:24:45.452Z,69.64
2023-02-15T05:27:31.733Z,69.13
2023-02-15T05:29:58.420Z,69.90
2023-02-15T05:32:27.163Z,69.68
2023-02-15T05:34:58.525Z,69.94
2023-02-15T05:37:25.353Z,69.26
2023-02-15T05:39:51.668Z,69.45
2023-02-15T05:42:18.048Z,69.32
2023-02-15T05:44:44.379Z,69.99
2023-02-15T05:47:10.778Z,69.18
2023-02-15T05:49:37.169Z,69.03
2023-02-15T05:52:04.167Z,69.84
2023-02-15T05:54:30.619Z,69.69
2023-02-15T05:56:57.300Z,69.17
2023-02-15T05:59:23.890Z,69.18
2023-02-15T06:01:50.265Z,69.18
2023-02-15T06:04:16.623Z,69.84
2023-02-15T06:06:43.100Z,69.77
2023-02-15T06:09:12.004Z,68.81
2023-02-15T06:11:38.436Z,69.71
2023-02-15T06:14:04.940Z,69.67
2023-02-15T06:16:31.462Z,69.30
2023-02-15T06:18:59.909Z,69.34
2023-02-15T06:21:26.589Z,69.53
2023-02-15T06:23:52.987Z,69.68
2023-02-15T06:26:19.352Z,69.65
2023-02-15T06:28:45.698Z,69.69
2023-02-15T06:31:12.131Z,69.94
2023-02-15T06:33:39.197Z,69.50
2023-02-15T06:36:05.871Z,70.05
2023-02-15T06:38:32.308Z,70.00
2023-02-15T06:40:58.847Z,70.22
2023-02-15T06:43:25.253Z,69.97
2023-02-15T06:45:51.621Z,69.84
2023-02-15T06:48:17.968Z,70.36
2023-02-15T06:50:44.308Z,70.74
2023-02-15T06:53:10.637Z,70.63
2023-02-15T06:55:37.406Z,70.39
2023-02-15T06:58:03.833Z,70.46
2023-02-15T07:00:30.263Z,70.29
2023-02-15T07:02:58.766Z,69.93
2023-02-15T07:05:26.105Z,69.76
2023-02-15T07:07:52.455Z,70.26
2023-02-15T07:10:18.939Z,70.68
2023-02-15T07:12:46.534Z,70.48
2023-02-15T07:15:15.995Z,70.63
2023-02-15T07:17:42.469Z,70.56
2023-02-15T07:20:12.825Z,70.34
2023-02-15T07:22:39.231Z,70.48
2023-02-15T07:25:07.454Z,70.03
2023-02-15T07:27:33.968Z,70.60
2023-02-15T07:30:01.421Z,70.26
2023-02-15T07:32:30.380Z,69.93
2023-02-15T07:34:56.906Z,70.20
2023-02-15T07:37:23.591Z,70.54
2023-02-15T07:39:50.040Z,70.46
2023-02-15T07:42:16.609Z,70.37
2023-02-15T07:44:43.115Z,70.19
2023-02-15T07:47:09.435Z,70.05
2023-02-15T07:49:35.869Z,70.55
2023-02-15T07:52:02.754Z,70.93
2023-02-15T07:54:29.197Z,70.34
2023-02-15T07:56:55.634Z,70.55
2023-02-15T07:59:22.007Z,69.96
2023-02-15T08:01:48.504Z,70.23
2023-02-15T08:04:14.946Z,70.36
2023-02-15T08:06:41.412Z,70.13
2023-02-15T08:09:09.565Z,71.02
2023-02-15T08:11:37.788Z,71.12
2023-02-15T08:14:08.838Z,70.17
2023-02-15T08:16:41.215Z,70.00
2023-02-15T08:19:18.475Z,70.31
2023-02-15T08:22:00.955Z,70.59
2023-02-15T08:24:32.677Z,70.55
2023-02-15T08:26:59.495Z,69.91
2023-02-15T08:29:28.192Z,70.47
2023-02-15T08:32:06.014Z,70.32
2023-02-15T08:34:37.001Z,70.97
2023-02-15T08:37:03.931Z,70.68
2023-02-15T08:39:30.424Z,70.94
2023-02-15T08:41:56.780Z,71.03
2023-02-15T08:44:23.476Z,70.63
2023-02-15T08:46:50.458Z,70.53
2023-02-15T08:49:20.687Z,70.57
2023-02-15T08:51:48.309Z,70.13
2023-02-15T08:54:17.331Z,69.77
2023-02-15T08:56:45.286Z,69.79
2023-02-15T08:59:19.954Z,70.08
2023-02-15T09:01:49.389Z,69.96
2023-02-15T09:04:16.693Z,71.39
2023-02-15T09:06:47.967Z,70.87
2023-02-15T09:09:15.403Z,70.23
2023-02-15T09:11:44.256Z,70.26
2023-02-15T09:14:16.499Z,69.97
2023-02-15T09:16:49.854Z,70.14
2023-02-15T09:19:18.338Z,70.81
2023-02-15T09:21:44.700Z,69.64
2023-02-15T09:24:14.582Z,69.78
2023-02-15T09:26:43.625Z,69.04
2023-02-15T09:29:11.528Z,69.50
2023-02-15T09:31:42.424Z,69.66
2023-02-15T09:34:08.884Z,69.21
2023-02-15T09:36:37.922Z,69.05
2023-02-15T09:39:17.474Z,69.32
2023-02-15T09:41:52.848Z,69.06
2023-02-15T09:44:28.270Z,68.13
2023-02-15T09:47:10.946Z,68.06
2023-02-15T09:49:58.572Z,67.67
2023-02-15T09:52:48.866Z,67.56
2023-02-15T09:55:18.341Z,67.37
2023-02-15T09:58:18.345Z,66.77
2023-02-15T10:01:13.645Z,67.07
2023-02-15T10:04:14.159Z,67.68
2023-02-15T10:07:02.567Z,68.23
2023-02-15T10:09:35.037Z,68.23
2023-02-15T10:12:23.085Z,68.00
2023-02-15T10:15:05.716Z,67.29
2023-02-15T10:17:42.894Z,67.10
2023-02-15T10:20:40.261Z,66.46
2023-02-15T10:23:19.649Z,66.80
2023-02-15T10:26:05.089Z,66.90
2023-02-15T10:28:49.582Z,66.43
2023-02-15T10:31:25.214Z,66.53
2023-02-15T10:33:59.483Z,66.68
2023-02-15T10:36:25.780Z,65.68
2023-02-15T10:39:18.193Z,64.36
2023-02-15T10:42:16.865Z,61.87
2023-02-15T10:45:03.108Z,57.38
2023-02-15T10:47:46.997Z,49.94
2023-02-15T10:50:52.707Z,47.89
2023-02-15T10:53:58.586Z,45.42
2023-02-15T10:56:29.300Z,43.96
2023-02-15T10:59:17.012Z,44.12
2023-02-15T11:02:00.555Z,43.62
2023-02-15T11:04:39.431Z,41.89
2023-02-15T11:07:24.652Z,41.09
2023-02-15T11:10:30.125Z,41.23
2023-02-15T11:13:04.589Z,39.89
2023-02-15T11:15:44.389Z,39.01
2023-02-15T11:18:17.142Z,38.77
2023-02-15T11:20:55.399Z,39.44
2023-02-15T11:23:22.374Z,39.28
2023-02-15T11:25:57.103Z,39.51
2023-02-15T11:28:38.109Z,40.20
2023-02-15T11:31:16.770Z,41.00
2023-02-15T11:33:48.973Z,40.34
2023-02-15T11:36:21.224Z,40.83
2023-02-15T11:38:52.060Z,41.56
2023-02-15T11:41:22.739Z,40.36
2023-02-15T11:43:57.458Z,40.16
2023-02-15T11:46:24.098Z,39.32
2023-02-15T11:48:50.683Z,39.67
2023-02-15T11:51:21.577Z,39.59
2023-02-15T11:53:50.010Z,40.24
2023-02-15T11:56:19.562Z,40.37
2023-02-15T11:58:52.472Z,39.07
2023-02-15T12:01:33.097Z,39.20
2023-02-15T12:04:06.292Z,38.46
2023-02-15T12:06:47.533Z,38.24
2023-02-15T12:09:37.046Z,37.40
2023-02-15T12:12:29.824Z,37.32
2023-02-15T12:14:58.574Z,38.68
2023-02-15T12:17:32.083Z,38.94
2023-02-15T12:20:07.672Z,38.85
2023-02-15T12:22:37.709Z,38.87
2023-02-15T12:25:30.543Z,39.14
2023-02-15T12:27:57.227Z,38.50
2023-02-15T12:30:32.616Z,38.53
2023-02-15T12:33:11.272Z,39.57
2023-02-15T12:35:38.728Z,37.94
2023-02-15T12:38:11.300Z,38.55
2023-02-15T12:40:40.999Z,38.76
2023-02-15T12:43:27.022Z,39.61
2023-02-15T12:45:53.526Z,38.69
2023-02-15T12:48:21.516Z,38.60
2023-02-15T12:50:54.696Z,37.87
2023-02-15T12:53:37.467Z,38.13
2023-02-15T12:56:09.841Z,37.63
2023-02-15T12:58:41.519Z,38.58
2023-02-15T13:01:23.103Z,38.51
2023-02-15T13:04:04.190Z,37.68
2023-02-15T13:06:35.591Z,37.93
2023-02-15T13:09:19.164Z,38.45
2023-02-15T13:11:46.785Z,37.39
2023-02-15T13:14:16.133Z,36.83
2023-02-15T13:16:45.278Z,37.39
2023-02-15T13:19:17.270Z,38.12
2023-02-15T13:21:53.426Z,38.13
2023-02-15T13:24:31.493Z,39.59
2023-02-15T13:27:14.084Z,38.99
2023-02-15T13:29:45.283Z,39.82
2023-02-15T13:32:28.123Z,40.37
2023-02-15T13:35:00.194Z,41.88
2023-02-15T13:37:34.745Z,43.32
2023-02-15T13:40:19.317Z,44.67
2023-02-15T13:42:57.064Z,45.52
2023-02-15T13:45:40.564Z,45.88
2023-02-15T13:48:36.944Z,46.65
2023-02-15T13:51:36.969Z,47.28
2023-02-15T13:54:30.830Z,46.55
2023-02-15T13:57:16.708Z,47.60
2023-02-15T13:59:54.709Z,47.65
2023-02-15T14:02:59.471Z,47.36
2023-02-15T14:05:47.555Z,48.52
2023-02-15T14:08:38.298Z,48.80
2023-02-15T14:11:43.874Z,48.82
2023-02-15T14:14:32.934Z,48.18
2023-02-15T14:17:28.018Z,48.07
2023-02-15T14:20:10.601Z,48.93
2023-02-15T14:22:45.240Z,49.42
2023-02-15T14:25:22.936Z,49.69
2023-02-15T14:28:05.367Z,49.44
2023-02-15T14:30:35.728Z,49.93
2023-02-15T14:33:08.478Z,49.68
2023-02-15T14:35:36.378Z,49.69
2023-02-15T14:38:18.128Z,50.07
2023-02-15T14:41:03.599Z,50.14
2023-02-15T14:44:01.265Z,49.92
2023-02-15T14:46:49.511Z,50.19
2023-02-15T14:49:24.116Z,50.70
2023-02-15T14:51:51.060Z,50.74
2023-02-15T14:54:17.871Z,50.78
2023-02-15T14:56:45.304Z,50.87
2023-02-15T14:59:22.192Z,50.70
2023-02-15T15:01:58.702Z,50.70
2023-02-15T15:04:35.429Z,50.96
2023-02-15T15:07:23.564Z,51.35
2023-02-15T15:10:01.591Z,51.02
2023-02-15T15:12:38.989Z,51.45
2023-02-15T15:15:06.302Z,51.62
2023-02-15T15:17:32.666Z,52.26
2023-02-15T15:20:08.288Z,52.23
2023-02-15T15:22:36.857Z,52.47
2023-02-15T15:25:12.350Z,52.52
2023-02-15T15:27:39.810Z,52.71
2023-02-15T15:30:15.691Z,52.91
2023-02-15T15:32:56.040Z,52.30
2023-02-15T15:35:45.923Z,52.78
2023-02-15T15:38:50.050Z,53.04
2023-02-15T15:41:44.391Z,53.33
2023-02-15T15:44:49.812Z,53.48
2023-02-15T15:47:24.715Z,53.99
2023-02-15T15:49:57.168Z,53.73
2023-02-15T15:52:23.713Z,54.08
2023-02-15T15:54:57.555Z,54.50
2023-02-15T15:57:30.940Z,54.85
2023-02-15T16:00:00.554Z,55.00
2023-02-15T16:02:27.095Z,55.40
2023-02-15T16:04:53.644Z,55.55
2023-02-15T16:07:20.267Z,55.78
2023-02-15T16:10:07.647Z,55.76
2023-02-15T16:12:36.841Z,55.88
2023-02-15T16:15:14.848Z,56.52
2023-02-15T16:17:43.778Z,56.93
2023-02-15T16:20:19.769Z,56.77
2023-02-15T16:23:06.325Z,56.65
2023-02-15T16:25:51.676Z,57.29
2023-02-15T16:28:19.585Z,57.30
2023-02-15T16:30:46.138Z,57.67
2023-02-15T16:33:17.945Z,57.71
2023-02-15T16:35:59.331Z,57.70
2023-02-15T16:38:44.728Z,58.03
2023-02-15T16:41:13.764Z,58.36
2023-02-15T16:43:42.852Z,58.47
2023-02-15T16:46:21.688Z,58.33
2023-02-15T16:48:55.082Z,58.37
2023-02-15T16:51:26.484Z,58.78
2023-02-15T16:53:56.507Z,58.82
2023-02-15T16:56:33.716Z,58.65
2023-02-15T16:59:12.846Z,59.16
2023-02-15T17:01:39.283Z,59.30
2023-02-15T17:04:27.592Z,60.43
2023-02-15T17:07:00.264Z,59.94
2023-02-15T17:09:27.693Z,61.27
2023-02-15T17:11:54.406Z,61.14
2023-02-15T17:14:27.458Z,61.60
2023-02-15T17:16:59.779Z,61.39
2023-02-15T17:19:41.270Z,61.86
2023-02-15T17:22:07.764Z,62.11
2023-02-15T17:24:41.074Z,62.83
2023-02-15T17:27:22.045Z,63.13
2023-02-15T17:29:53.085Z,62.92
2023-02-15T17:32:23.764Z,62.75
2023-02-15T17:35:00.065Z,62.26
2023-02-15T17:37:37.242Z,61.90
2023-02-15T17:40:29.319Z,62.36
2023-02-15T17:42:56.121Z,61.28
2023-02-15T17:45:25.810Z,61.84
2023-02-15T17:47:52.532Z,62.26
2023-02-15T17:50:27.390Z,62.62
2023-02-15T17:52:56.044Z,62.97
2023-02-15T17:55:36.604Z,63.70
2023-02-15T17:58:06.924Z,64.70
2023-02-15T18:00:56.210Z,63.22
2023-02-15T18:03:41.496Z,62.95
2023-02-15T18:06:26.599Z,61.97
2023-02-15T18:09:12.675Z,62.71
2023-02-15T18:11:39.322Z,62.91
2023-02-15T18:14:11.099Z,62.62
2023-02-15T18:16:44.270Z,62.32
2023-02-15T18:19:18.585Z,62.16
2023-02-15T18:21:45.767Z,62.11
2023-02-15T18:24:24.290Z,61.37
2023-02-15T18:26:52.390Z,62.42
2023-02-15T18:29:18.845Z,63.05
2023-02-15T18:31:49.906Z,63.59
2023-02-15T18:34:29.806Z,62.61
2023-02-15T18:36:57.806Z,63.60
2023-02-15T18:39:30.572Z,62.54
2023-02-15T18:41:57.376Z,62.48
2023-02-15T18:44:23.737Z,63.39
2023-02-15T18:46:50.142Z,62.49
2023-02-15T18:49:16.527Z,62.94
2023-02-15T18:51:43.276Z,62.88
2023-02-15T18:54:24.918Z,63.67
2023-02-15T18:56:57.332Z,63.22
2023-02-15T18:59:25.168Z,65.25
2023-02-15T19:01:52.124Z,64.60
2023-02-15T19:04:18.634Z,64.78
2023-02-15T19:06:47.931Z,63.78
2023-02-15T19:09:18.314Z,62.97
2023-02-15T19:11:49.524Z,62.54
2023-02-15T19:14:34.247Z,63.80
2023-02-15T19:17:01.127Z,64.44
2023-02-15T19:19:27.831Z,65.23
2023-02-15T19:21:56.069Z,65.43
2023-02-15T19:24:36.890Z,65.92
2023-02-15T19:27:03.747Z,64.31
2023-02-15T19:29:31.177Z,64.97
2023-02-15T19:31:58.057Z,66.19
2023-02-15T19:34:24.869Z,65.10
2023-02-15T19:36:54.002Z,64.60
2023-02-15T19:39:23.295Z,64.24
2023-02-15T19:41:49.851Z,64.37
2023-02-15T19:44:17.673Z,63.91
2023-02-15T19:46:44.952Z,63.81
2023-02-15T19:49:12.170Z,63.25
2023-02-15T19:51:39.695Z,62.59
2023-02-15T19:54:25.070Z,63.45
2023-02-15T19:56:51.531Z,65.59
2023-02-15T19:59:29.967Z,64.18
2023-02-15T20:01:56.789Z,63.13
2023-02-15T20:04:24.248Z,64.17
2023-02-15T20:06:52.596Z,62.96
2023-02-15T20:09:23.822Z,65.07
2023-02-15T20:11:52.154Z,64.90
2023-02-15T20:14:19.490Z,65.03
2023-02-15T20:16:45.963Z,65.86
2023-02-15T20:19:13.142Z,66.24
2023-02-15T20:21:45.368Z,65.90
2023-02-15T20:24:17.388Z,65.80
2023-02-15T20:26:44.809Z,65.77
2023-02-15T20:29:15.741Z,65.92
2023-02-15T20:31:43.085Z,66.52
2023-02-15T20:34:09.830Z,65.70
2023-02-15T20:36:42.010Z,66.00
2023-02-15T20:39:17.253Z,65.87
2023-02-15T20:41:49.674Z,66.65
2023-02-15T20:44:26.376Z,65.28
2023-02-15T20:46:58.411Z,64.49
2023-02-15T20:49:26.481Z,64.58
2023-02-15T20:51:54.431Z,64.00
2023-02-15T20:54:27.045Z,63.45
2023-02-15T20:56:54.372Z,62.74
2023-02-15T20:59:32.293Z,62.27
2023-02-15T21:02:05.352Z,62.10
2023-02-15T21:04:33.481Z,62.43
2023-02-15T21:07:00.629Z,62.23
2023-02-15T21:09:27.198Z,62.48
2023-02-15T21:12:01.244Z,62.20
2023-02-15T21:14:28.527Z,62.25
2023-02-15T21:16:55.069Z,62.34
2023-02-15T21:19:23.592Z,62.04
2023-02-15T21:21:52.811Z,62.08
2023-02-15T21:24:24.411Z,62.56
2023-02-15T21:26:52.478Z,62.25
2023-02-15T21:29:30.278Z,62.70
2023-02-15T21:32:00.460Z,62.50
2023-02-15T21:34:26.977Z,62.16
2023-02-15T21:36:53.654Z,62.07
2023-02-15T21:39:23.395Z,61.78
2023-02-15T21:42:10.291Z,62.02
2023-02-15T21:44:55.746Z,61.71
2023-02-15T21:47:42.525Z,61.59
2023-02-15T21:50:33.399Z,61.50
2023-02-15T21:53:04.096Z,61.75
2023-02-15T21:55:31.088Z,61.53
2023-02-15T21:57:57.514Z,60.93
2023-02-15T22:00:25.440Z,61.23
2023-02-15T22:02:54.484Z,60.92
2023-02-15T22:05:26.493Z,61.04
2023-02-15T22:07:52.891Z,61.51
2023-02-15T22:10:21.056Z,61.29
2023-02-15T22:12:50.661Z,61.30
2023-02-15T22:15:22.729Z,61.21
2023-02-15T22:17:50.568Z,61.33
2023-02-15T22:20:22.573Z,61.22
2023-02-15T22:22:50.378Z,61.34
2023-02-15T22:25:19.494Z,61.69
2023-02-15T22:27:47.973Z,61.53
2023-02-15T22:30:19.734Z,61.34
2023-02-15T22:32:46.429Z,61.23
2023-02-15T22:35:23.268Z,61.61
2023-02-15T22:37:49.683Z,61.18
2023-02-15T22:40:18.784Z,61.61
2023-02-15T22:42:47.425Z,61.45
2023-02-15T22:45:20.294Z,61.63
2023-02-15T22:47:53.281Z,61.58
2023-02-15T22:50:25.354Z,61.74
2023-02-15T22:52:52.392Z,61.68
2023-02-15T22:55:21.862Z,61.89
2023-02-15T22:57:52.791Z,61.56
2023-02-15T23:00:22.516Z,61.75
2023-02-15T23:02:48.937Z,61.81
2023-02-15T23:05:33.402Z,62.00
2023-02-15T23:07:59.856Z,62.04
2023-02-15T23:10:26.662Z,61.86
2023-02-15T23:13:17.207Z,61.93
2023-02-15T23:15:45.797Z,62.13
2023-02-15T23:18:19.593Z,62.30
2023-02-15T23:20:49.787Z,62.41
2023-02-15T23:23:26.006Z,62.64
2023-02-15T23:25:52.469Z,62.46
2023-02-15T23:28:23.082Z,62.50
2023-02-15T23:30:50.230Z,62.58
2023-02-15T23:33:20.177Z,62.76
2023-02-15T23:35:46.707Z,62.90
2023-02-15T23:38:27.452Z,62.66
2023-02-15T23:41:16.561Z,62.41
2023-02-15T23:43:47.157Z,62.76
2023-02-15T23:46:21.967Z,62.95
2023-02-15T23:48:48.368Z,62.97
2023-02-15T23:51:14.899Z,63.36
2023-02-15T23:53:41.254Z,63.83
2023-02-15T23:56:12.715Z,63.27
2023-02-15T23:58:41.942Z,63.69
